Betancuria — EAMH — position and weather

sailwx.info

Track history (hours):
 
Tides and Currents Weather Stations Pressure Air Temp Water Temp Dewpoint Dewpoint Depression Visibility Wind Speed Wind Dir Waves Ship Positions

Betancuria

Last reported at 2016-May-27 00:31 UTC. Time now 2016-May-27 06:35 UTC.
Position N 38°59' W 009°50'.

Length 141 m; draft 4.7 m.

Type: Ship. MMSI: 224471000.

Date/timePositionNaut miles runAvg speedWind from/ knotsBaromVisibWave heightAir tempDewpointWater temp
2016-May-27 00:31N 38°59' W 009°50'1111.1
2016-May-26 23:33N 38°48' W 009°50'1110.9
2016-May-26 22:33N 38°37' W 009°48'1110.9
2016-May-26 21:32N 38°26' W 009°44'3811.4
2016-May-26 18:13N 37°49' W 009°34'811.5
2016-May-26 17:31N 37°42' W 009°32'216 9.4
2016-May-25 18:31N 35°59' W 005°35'8 8.4
2016-May-25 17:33N 36°01' W 005°25'8 8.3
2016-May-25 16:34N 36°04' W 005°16'22210.5
2016-May-24 19:23N 37°20' W 000°55'1112.0
2016-May-24 18:30N 37°27' W 000°45'1111.8
2016-May-24 17:31N 37°34' W 000°34'1211.9
2016-May-24 16:33N 37°44' W 000°26'1312.2
2016-May-24 15:31N 37°55' W 000°17'1612.5
2016-May-24 14:14N 38°08' W 000°06'9211.8
2016-May-24 06:23N 39°27' E 000°54'1012.0
2016-May-24 05:33N 39°36' E 000°60'1211.6
2016-May-24 04:33N 39°47' E 001°07'1212.2
2016-May-24 03:32N 39°57' E 001°15'1312.7
2016-May-24 02:33N 40°08' E 001°23'1312.7
2016-May-24 01:33N 40°20' E 001°30'1312.6
2016-May-24 00:33N 40°31' E 001°38'1312.6
2016-May-23 23:33N 40°42' E 001°46'1312.1
2016-May-23 22:29N 40°53' E 001°54'1112.0
2016-May-23 21:33N 41°03' E 002°01'20 6.6
2016-May-23 18:33N 41°22' E 002°10'0 0.0
2016-May-23 17:21N 41°22' E 002°10'0 0.0
2016-May-23 14:30N 41°22' E 002°10'20 1.0
2016-May-22 19:33N 41°03' E 002°02'2311.0
2016-May-22 17:27N 40°42' E 001°48'1111.3
2016-May-22 16:31N 40°33' E 001°41'1111.3
2016-May-22 15:33N 40°23' E 001°35'1111.5
2016-May-22 14:33N 40°13' E 001°28'1211.7
2016-May-22 13:33N 40°03' E 001°21'1211.8
2016-May-22 12:31N 39°52' E 001°14'4711.4
2016-May-22 08:23N 39°10' E 000°46'2511.1
2016-May-22 06:09N 38°48' E 000°31'711.2
2016-May-22 05:33N 38°42' E 000°27'1111.1
2016-May-22 04:33N 38°32' E 000°20'1110.9
2016-May-22 03:33N 38°24' E 000°12'1411.1
2016-May-22 02:20N 38°12' E 000°02'911.0
2016-May-22 01:33N 38°05' W 000°04'1111.0
2016-May-22 00:33N 37°56' W 000°12'1111.1
2016-May-21 23:33N 37°47' W 000°20'1111.1
2016-May-21 22:33N 37°38' W 000°27'1111.1
2016-May-21 21:34N 37°29' W 000°37'1111.1
2016-May-21 20:33N 37°22' W 000°47'1111.2
2016-May-21 19:33N 37°14' W 000°57'1111.0
2016-May-21 18:34N 37°07' W 001°08'21110.6
2016-May-20 22:33N 35°60' W 005°17'  
2016-May-18 12:08N 29°39' W 013°34'14 8.7
2016-May-18 10:30N 29°29' W 013°45'8 8.7
2016-May-18 09:31N 29°23' W 013°52'20 8.6
2016-May-18 07:12N 29°10' W 014°10'8 8.4
2016-May-18 06:14N 29°04' W 014°16'6 8.1
2016-May-18 05:28N 28°60' W 014°21'8 8.5
2016-May-18 04:31N 28°54' W 014°27'10 8.6
2016-May-18 03:23N 28°47' W 014°36'7 8.6
2016-May-18 02:33N 28°42' W 014°41'8 8.5
2016-May-18 01:33N 28°37' W 014°48'9 8.6
2016-May-18 00:33N 28°30' W 014°55'9 8.8
2016-May-17 23:33N 28°24' W 015°03'9 8.7
2016-May-17 22:33N 28°18' W 015°10'9 8.8
2016-May-17 21:33N 28°12' W 015°17'9 8.7
2016-May-17 20:33N 28°07' W 015°24'0 0.3
2016-May-17 19:30N 28°06' W 015°25'0 0.0
2016-May-17 18:33N 28°06' W 015°25'0 0.1
2016-May-17 17:33N 28°06' W 015°25'5 4.9
2016-May-17 16:34N 28°03' W 015°21'8 8.0
2016-May-17 15:33N 27°55' W 015°20'  
Track history (hours):
 
Tides and Currents Weather Stations Pressure Air Temp Water Temp Dewpoint Dewpoint Depression Visibility Wind Speed Wind Dir Waves Ship Positions

Betancuria

Last reported at 2016-May-27 00:31 UTC. Time now 2016-May-27 06:35 UTC.
Position N 38°59' W 009°50'.

Length 141 m; draft 4.7 m.

Type: Ship. MMSI: 224471000.

Date/timePositionNaut miles runAvg speedWind from/ knotsBaromVisibWave heightAir tempDewpointWater temp
2016-May-27 00:31N 38°59' W 009°50'1111.1
2016-May-26 23:33N 38°48' W 009°50'1110.9
2016-May-26 22:33N 38°37' W 009°48'1110.9
2016-May-26 21:32N 38°26' W 009°44'3811.4
2016-May-26 18:13N 37°49' W 009°34'811.5
2016-May-26 17:31N 37°42' W 009°32'216 9.4
2016-May-25 18:31N 35°59' W 005°35'8 8.4
2016-May-25 17:33N 36°01' W 005°25'8 8.3
2016-May-25 16:34N 36°04' W 005°16'22210.5
2016-May-24 19:23N 37°20' W 000°55'1112.0
2016-May-24 18:30N 37°27' W 000°45'1111.8
2016-May-24 17:31N 37°34' W 000°34'1211.9
2016-May-24 16:33N 37°44' W 000°26'1312.2
2016-May-24 15:31N 37°55' W 000°17'1612.5
2016-May-24 14:14N 38°08' W 000°06'9211.8
2016-May-24 06:23N 39°27' E 000°54'1012.0
2016-May-24 05:33N 39°36' E 000°60'1211.6
2016-May-24 04:33N 39°47' E 001°07'1212.2
2016-May-24 03:32N 39°57' E 001°15'1312.7
2016-May-24 02:33N 40°08' E 001°23'1312.7
2016-May-24 01:33N 40°20' E 001°30'1312.6
2016-May-24 00:33N 40°31' E 001°38'1312.6
2016-May-23 23:33N 40°42' E 001°46'1312.1
2016-May-23 22:29N 40°53' E 001°54'1112.0
2016-May-23 21:33N 41°03' E 002°01'20 6.6
2016-May-23 18:33N 41°22' E 002°10'0 0.0
2016-May-23 17:21N 41°22' E 002°10'0 0.0
2016-May-23 14:30N 41°22' E 002°10'20 1.0
2016-May-22 19:33N 41°03' E 002°02'2311.0
2016-May-22 17:27N 40°42' E 001°48'1111.3
2016-May-22 16:31N 40°33' E 001°41'1111.3
2016-May-22 15:33N 40°23' E 001°35'1111.5
2016-May-22 14:33N 40°13' E 001°28'1211.7
2016-May-22 13:33N 40°03' E 001°21'1211.8
2016-May-22 12:31N 39°52' E 001°14'4711.4
2016-May-22 08:23N 39°10' E 000°46'2511.1
2016-May-22 06:09N 38°48' E 000°31'711.2
2016-May-22 05:33N 38°42' E 000°27'1111.1
2016-May-22 04:33N 38°32' E 000°20'1110.9
2016-May-22 03:33N 38°24' E 000°12'1411.1
2016-May-22 02:20N 38°12' E 000°02'911.0
2016-May-22 01:33N 38°05' W 000°04'1111.0
2016-May-22 00:33N 37°56' W 000°12'1111.1
2016-May-21 23:33N 37°47' W 000°20'1111.1
2016-May-21 22:33N 37°38' W 000°27'1111.1
2016-May-21 21:34N 37°29' W 000°37'1111.1
2016-May-21 20:33N 37°22' W 000°47'1111.2
2016-May-21 19:33N 37°14' W 000°57'1111.0
2016-May-21 18:34N 37°07' W 001°08'21110.6
2016-May-20 22:33N 35°60' W 005°17'  
2016-May-18 12:08N 29°39' W 013°34'14 8.7
2016-May-18 10:30N 29°29' W 013°45'8 8.7
2016-May-18 09:31N 29°23' W 013°52'20 8.6
2016-May-18 07:12N 29°10' W 014°10'8 8.4
2016-May-18 06:14N 29°04' W 014°16'6 8.1
2016-May-18 05:28N 28°60' W 014°21'8 8.5
2016-May-18 04:31N 28°54' W 014°27'10 8.6
2016-May-18 03:23N 28°47' W 014°36'7 8.6
2016-May-18 02:33N 28°42' W 014°41'8 8.5
2016-May-18 01:33N 28°37' W 014°48'9 8.6
2016-May-18 00:33N 28°30' W 014°55'9 8.8
2016-May-17 23:33N 28°24' W 015°03'9 8.7
2016-May-17 22:33N 28°18' W 015°10'9 8.8
2016-May-17 21:33N 28°12' W 015°17'9 8.7
2016-May-17 20:33N 28°07' W 015°24'0 0.3
2016-May-17 19:30N 28°06' W 015°25'0 0.0
2016-May-17 18:33N 28°06' W 015°25'0 0.1
2016-May-17 17:33N 28°06' W 015°25'5 4.9
2016-May-17 16:34N 28°03' W 015°21'8 8.0
2016-May-17 15:33N 27°55' W 015°20'  

Dump ship's entire track history